Time;durP1;ratioP1;P1;durP2;ratioP2;P2;SDS_P1;SDS_P2;PMS_P1;PMS_P2;Temp;Humidity;BMP_temperature;BMP_pressure;BME280_temperature;BME280_humidity;BME280_pressure;Samples;Min_cycle;Max_cycle;Signal;HPM_P1;HPM_P2
2023/04/28 00:00:37;;;;;;;;;;;15.90;52.60;;;;;;5100945;28;19909;-86
2023/04/28 00:03:02;;;;;;;;;;;15.90;52.70;;;;;;5100460;28;20309;-86
2023/04/28 00:05:28;;;;;;;;;;;15.90;52.70;;;;;;5104806;28;20322;-86
2023/04/28 00:07:54;;;;;;;;;;;15.90;52.70;;;;;;5080797;28;19931;-86
2023/04/28 00:10:19;;;;;;;;;;;15.90;52.70;;;;;;5079632;28;19908;-86
2023/04/28 00:12:45;;;;;;;;;;;15.90;52.70;;;;;;5081036;28;19940;-86
2023/04/28 00:15:12;;;;;;;;;;;15.90;53.20;;;;;;5082122;28;19916;-86
2023/04/28 00:17:37;;;;;;;;;;;15.90;52.80;;;;;;5081317;28;19908;-86
2023/04/28 00:20:04;;;;;;;;;;;15.90;52.80;;;;;;5099584;28;19989;-86
2023/04/28 00:22:30;;;;;;;;;;;15.80;52.80;;;;;;5099281;28;19984;-86
2023/04/28 00:25:08;;;;;;;;;;;15.90;52.90;;;;;;5101448;28;19920;-86
2023/04/28 00:27:34;;;;;;;;;;;15.90;52.90;;;;;;5118499;28;19920;-86
2023/04/28 00:29:59;;;;;;;;;;;15.80;52.90;;;;;;5084559;28;20155;-86
2023/04/28 00:32:25;;;;;;;;;;;15.80;52.90;;;;;;5083259;28;19908;-86
2023/04/28 00:34:53;;;;;;;;;;;15.80;53.00;;;;;;5080919;28;19944;-86
2023/04/28 00:37:19;;;;;;;;;;;15.80;53.00;;;;;;5082880;28;20281;-87
2023/04/28 00:39:45;;;;;;;;;;;15.80;53.00;;;;;;5101032;28;19911;-86
2023/04/28 00:42:11;;;;;;;;;;;15.80;53.00;;;;;;5097066;28;19973;-86
2023/04/28 00:44:48;;;;;;;;;;;15.80;53.10;;;;;;5084575;28;19912;-86
2023/04/28 00:47:16;;;;;;;;;;;15.80;53.10;;;;;;5084634;28;19908;-86
2023/04/28 00:49:41;;;;;;;;;;;15.80;53.10;;;;;;5089081;28;20273;-86
2023/04/28 00:52:07;;;;;;;;;;;15.80;53.10;;;;;;5105440;28;19918;-86
2023/04/28 00:54:47;;;;;;;;;;;15.80;53.20;;;;;;5122445;28;19920;-86
2023/04/28 00:57:12;;;;;;;;;;;15.80;53.10;;;;;;5114280;28;19912;-86
2023/04/28 00:59:38;;;;;;;;;;;15.80;53.20;;;;;;5084854;28;19920;-86
2023/04/28 01:02:05;;;;;;;;;;;15.80;53.30;;;;;;5084227;28;19915;-86
2023/04/28 01:04:38;;;;;;;;;;;15.70;53.20;;;;;;5084272;28;19998;-86
2023/04/28 01:07:04;;;;;;;;;;;15.70;53.30;;;;;;5102461;28;19912;-86
2023/04/28 01:09:29;;;;;;;;;;;15.70;53.30;;;;;;5084725;28;20250;-86
2023/04/28 01:11:55;;;;;;;;;;;15.70;53.30;;;;;;5084296;28;20352;-86
2023/04/28 01:14:33;;;;;;;;;;;15.70;53.30;;;;;;5101626;28;19923;-87
2023/04/28 01:16:59;;;;;;;;;;;15.70;53.30;;;;;;5084217;28;19908;-86
2023/04/28 01:19:24;;;;;;;;;;;15.70;53.30;;;;;;5094997;28;19925;-85
2023/04/28 01:21:50;;;;;;;;;;;15.70;53.40;;;;;;5103459;28;20010;-86
2023/04/28 01:24:18;;;;;;;;;;;15.70;53.40;;;;;;5117675;28;20477;-86
2023/04/28 01:26:45;;;;;;;;;;;15.70;53.40;;;;;;5094982;28;19908;-87
2023/04/28 01:29:10;;;;;;;;;;;15.70;53.40;;;;;;5084619;28;19924;-87
2023/04/28 01:31:36;;;;;;;;;;;15.70;53.50;;;;;;5101365;28;19938;-87
2023/04/28 01:34:07;;;;;;;;;;;15.70;53.40;;;;;;5085886;28;19951;-86
2023/04/28 01:36:32;;;;;;;;;;;15.70;53.40;;;;;;5119020;28;20482;-86
2023/04/28 01:38:58;;;;;;;;;;;15.70;53.40;;;;;;5085076;28;19916;-86
2023/04/28 01:41:24;;;;;;;;;;;15.70;53.50;;;;;;5102190;28;19919;-86
2023/04/28 01:43:56;;;;;;;;;;;15.70;53.50;;;;;;5096687;28;19908;-86
2023/04/28 01:46:22;;;;;;;;;;;15.70;53.50;;;;;;5120140;28;19918;-86
2023/04/28 01:48:47;;;;;;;;;;;15.70;53.60;;;;;;5116277;28;19908;-86
2023/04/28 01:51:13;;;;;;;;;;;15.70;53.50;;;;;;5083921;28;20205;-85
2023/04/28 01:53:40;;;;;;;;;;;15.60;53.50;;;;;;5111806;28;19918;-86
2023/04/28 01:56:05;;;;;;;;;;;15.60;53.60;;;;;;5104156;28;20003;-86
2023/04/28 01:58:31;;;;;;;;;;;15.60;53.60;;;;;;5103592;28;19912;-86
2023/04/28 02:00:57;;;;;;;;;;;15.60;53.60;;;;;;5121611;28;20006;-86
2023/04/28 02:03:42;;;;;;;;;;;15.60;53.60;;;;;;5103973;28;19912;-86
2023/04/28 02:06:08;;;;;;;;;;;15.60;53.60;;;;;;5089611;28;19915;-86
2023/04/28 02:08:33;;;;;;;;;;;15.60;53.60;;;;;;5083558;28;19908;-86
2023/04/28 02:11:00;;;;;;;;;;;15.60;53.70;;;;;;5082337;28;19915;-86
2023/04/28 02:13:26;;;;;;;;;;;15.60;53.70;;;;;;5082861;28;19908;-86
2023/04/28 02:15:51;;;;;;;;;;;15.60;53.70;;;;;;5082668;28;19922;-86
2023/04/28 02:18:17;;;;;;;;;;;15.60;53.70;;;;;;5082327;28;19923;-86
2023/04/28 02:20:42;;;;;;;;;;;15.60;53.80;;;;;;5102246;28;19916;-86
2023/04/28 02:23:10;;;;;;;;;;;15.60;53.80;;;;;;5101672;28;19911;-86
2023/04/28 02:25:35;;;;;;;;;;;15.60;53.80;;;;;;5090331;28;19962;-86
2023/04/28 02:28:01;;;;;;;;;;;15.60;53.80;;;;;;5089731;28;19930;-86
2023/04/28 02:30:27;;;;;;;;;;;15.60;53.80;;;;;;5115046;28;19920;-86
2023/04/28 02:32:59;;;;;;;;;;;15.60;53.80;;;;;;5100167;28;19912;-86
2023/04/28 02:35:24;;;;;;;;;;;15.50;53.80;;;;;;5083245;28;20425;-85
2023/04/28 02:37:51;;;;;;;;;;;15.60;53.90;;;;;;5103820;28;19908;-85
2023/04/28 02:40:16;;;;;;;;;;;15.50;53.90;;;;;;5094027;28;19922;-86
2023/04/28 02:42:52;;;;;;;;;;;15.50;53.90;;;;;;5092805;28;19994;-85
2023/04/28 02:45:18;;;;;;;;;;;15.50;53.90;;;;;;5091416;28;19908;-86
2023/04/28 02:47:43;;;;;;;;;;;15.50;53.90;;;;;;5102818;28;20185;-86
2023/04/28 02:50:09;;;;;;;;;;;15.50;53.90;;;;;;5087013;28;19989;-86
2023/04/28 02:52:35;;;;;;;;;;;15.50;53.90;;;;;;5082632;28;20189;-86
2023/04/28 02:55:02;;;;;;;;;;;15.50;54.00;;;;;;5111755;28;20269;-86
2023/04/28 02:57:28;;;;;;;;;;;15.50;54.00;;;;;;5086565;28;20306;-86
2023/04/28 02:59:53;;;;;;;;;;;15.50;54.00;;;;;;5100278;28;19918;-86
2023/04/28 03:02:21;;;;;;;;;;;15.50;54.00;;;;;;5086690;28;19928;-86
2023/04/28 03:04:47;;;;;;;;;;;15.50;54.00;;;;;;5102698;28;19950;-86
2023/04/28 03:07:12;;;;;;;;;;;15.50;54.10;;;;;;5101847;28;19951;-85
2023/04/28 03:09:38;;;;;;;;;;;15.50;54.00;;;;;;5119651;28;20320;-85
2023/04/28 03:12:13;;;;;;;;;;;15.50;54.10;;;;;;5097767;28;20189;-85
2023/04/28 03:14:38;;;;;;;;;;;15.50;54.10;;;;;;5081862;28;20217;-85
2023/04/28 03:17:04;;;;;;;;;;;15.50;54.10;;;;;;5089807;28;20285;-86
2023/04/28 03:19:32;;;;;;;;;;;15.50;54.10;;;;;;5119379;28;19941;-86
2023/04/28 03:21:57;;;;;;;;;;;15.50;54.20;;;;;;5108669;28;19923;-86
2023/04/28 03:24:23;;;;;;;;;;;15.50;54.20;;;;;;5082860;28;19908;-86
2023/04/28 03:26:48;;;;;;;;;;;15.40;54.10;;;;;;5106698;28;19908;-86
2023/04/28 03:29:14;;;;;;;;;;;15.50;54.20;;;;;;5101213;28;20335;-86
2023/04/28 03:31:40;;;;;;;;;;;15.50;54.20;;;;;;5086183;28;20293;-86
2023/04/28 03:34:06;;;;;;;;;;;15.50;54.20;;;;;;5098638;28;19911;-86
2023/04/28 03:36:32;;;;;;;;;;;15.50;54.20;;;;;;5097500;28;19955;-85
2023/04/28 03:39:00;;;;;;;;;;;15.50;54.20;;;;;;5099531;28;19958;-85
2023/04/28 03:41:26;;;;;;;;;;;15.50;54.20;;;;;;5081284;28;20413;-85
2023/04/28 03:43:52;;;;;;;;;;;15.40;54.20;;;;;;5087778;28;20002;-85
2023/04/28 03:46:17;;;;;;;;;;;15.50;54.20;;;;;;5089572;28;20036;-85
2023/04/28 03:48:57;;;;;;;;;;;15.40;54.20;;;;;;5135735;27;19916;-84
2023/04/28 03:51:23;;;;;;;;;;;15.40;54.20;;;;;;5118682;28;19918;-84
2023/04/28 03:53:48;;;;;;;;;;;15.40;54.20;;;;;;5118304;27;19937;-85
2023/04/28 03:56:31;;;;;;;;;;;15.40;54.20;;;;;;5118273;28;19962;-84
2023/04/28 03:58:57;;;;;;;;;;;15.40;54.20;;;;;;5135365;27;19919;-84
2023/04/28 04:01:22;;;;;;;;;;;15.40;54.20;;;;;;5118108;28;19908;-84
2023/04/28 04:03:48;;;;;;;;;;;15.40;54.30;;;;;;5135428;28;20326;-84
2023/04/28 04:06:14;;;;;;;;;;;15.40;54.20;;;;;;5136981;27;20055;-85
2023/04/28 04:08:40;;;;;;;;;;;15.40;54.30;;;;;;5116656;28;19931;-85
2023/04/28 04:11:05;;;;;;;;;;;15.40;54.30;;;;;;5135552;28;19907;-85
2023/04/28 04:13:31;;;;;;;;;;;15.40;54.30;;;;;;5118372;28;19916;-85
2023/04/28 04:15:58;;;;;;;;;;;15.40;54.30;;;;;;5117952;28;19908;-85
2023/04/28 04:18:23;;;;;;;;;;;15.40;54.30;;;;;;5118095;28;19907;-85
2023/04/28 04:20:49;;;;;;;;;;;15.40;54.40;;;;;;5117210;28;19912;-85
2023/04/28 04:23:15;;;;;;;;;;;15.40;54.40;;;;;;5135259;27;19918;-85
2023/04/28 04:25:51;;;;;;;;;;;15.40;54.40;;;;;;5134229;27;19907;-85
2023/04/28 04:28:16;;;;;;;;;;;15.40;54.40;;;;;;5116032;28;19934;-85
2023/04/28 04:30:42;;;;;;;;;;;15.40;54.40;;;;;;5133095;27;19908;-85
2023/04/28 04:33:08;;;;;;;;;;;15.40;54.40;;;;;;5117245;28;19919;-85
2023/04/28 04:35:33;;;;;;;;;;;15.40;54.40;;;;;;5116069;28;19907;-85
2023/04/28 04:38:00;;;;;;;;;;;15.40;54.40;;;;;;5111427;27;19916;-85
2023/04/28 04:40:25;;;;;;;;;;;15.40;54.50;;;;;;5111345;28;19918;-85
2023/04/28 04:42:51;;;;;;;;;;;15.40;54.50;;;;;;5111868;28;19992;-85
2023/04/28 04:45:17;;;;;;;;;;;15.40;54.50;;;;;;5109526;27;20202;-85
2023/04/28 04:47:43;;;;;;;;;;;15.40;54.50;;;;;;5111393;28;19923;-85
2023/04/28 04:50:09;;;;;;;;;;;15.40;54.50;;;;;;5108837;28;19908;-85
2023/04/28 04:52:36;;;;;;;;;;;15.40;54.60;;;;;;5109034;27;19907;-85
2023/04/28 04:55:02;;;;;;;;;;;15.40;54.60;;;;;;5109066;28;19937;-85
2023/04/28 04:57:27;;;;;;;;;;;15.40;54.60;;;;;;5108368;28;20478;-85
2023/04/28 04:59:53;;;;;;;;;;;15.40;54.60;;;;;;5113579;27;20299;-85
2023/04/28 05:02:19;;;;;;;;;;;15.40;54.60;;;;;;5096535;28;20027;-86
2023/04/28 05:04:44;;;;;;;;;;;15.40;54.60;;;;;;5111651;28;20332;-85
2023/04/28 05:07:10;;;;;;;;;;;15.40;54.60;;;;;;5092450;28;19919;-85
2023/04/28 05:09:36;;;;;;;;;;;15.40;54.70;;;;;;5094577;28;20013;-86
2023/04/28 05:12:01;;;;;;;;;;;15.40;54.70;;;;;;5092143;28;19907;-86
2023/04/28 05:14:27;;;;;;;;;;;15.40;54.70;;;;;;5094287;28;20265;-86
2023/04/28 05:16:52;;;;;;;;;;;15.40;54.70;;;;;;5095567;28;20176;-86
2023/04/28 05:19:18;;;;;;;;;;;15.40;54.80;;;;;;5094717;28;20151;-86
2023/04/28 05:21:46;;;;;;;;;;;15.40;54.70;;;;;;5094322;28;19972;-86
2023/04/28 05:24:12;;;;;;;;;;;15.40;55.20;;;;;;5092721;28;19943;-86
2023/04/28 05:26:38;;;;;;;;;;;15.40;54.80;;;;;;5093218;28;19908;-86
2023/04/28 05:29:03;;;;;;;;;;;15.40;54.80;;;;;;5092582;28;19919;-86
2023/04/28 05:31:29;;;;;;;;;;;15.50;54.80;;;;;;5091521;28;19911;-85
2023/04/28 05:33:54;;;;;;;;;;;15.40;54.80;;;;;;5090896;28;19915;-85
2023/04/28 05:36:20;;;;;;;;;;;15.50;54.90;;;;;;5092207;28;19951;-85
2023/04/28 05:38:46;;;;;;;;;;;15.50;54.90;;;;;;5123853;27;19907;-85
2023/04/28 05:41:11;;;;;;;;;;;15.50;54.90;;;;;;5090834;28;20196;-85
2023/04/28 05:43:37;;;;;;;;;;;15.50;55.00;;;;;;5089862;28;19908;-85
2023/04/28 05:46:02;;;;;;;;;;;15.50;55.00;;;;;;5107256;28;19937;-86
2023/04/28 05:48:28;;;;;;;;;;;15.50;55.10;;;;;;5124758;27;19944;-86
2023/04/28 05:50:53;;;;;;;;;;;15.50;55.20;;;;;;5108180;28;20162;-86
2023/04/28 05:53:19;;;;;;;;;;;15.50;55.20;;;;;;5092692;28;20276;-86
2023/04/28 05:55:45;;;;;;;;;;;15.50;55.20;;;;;;5091713;28;19907;-86
2023/04/28 05:58:10;;;;;;;;;;;15.50;55.40;;;;;;5090624;28;20143;-85
2023/04/28 06:00:36;;;;;;;;;;;15.60;55.30;;;;;;5120607;27;19908;-85
2023/04/28 06:03:01;;;;;;;;;;;15.60;55.30;;;;;;5108300;28;19908;-85
2023/04/28 06:05:27;;;;;;;;;;;15.60;55.40;;;;;;5090059;28;20277;-85
2023/04/28 06:07:54;;;;;;;;;;;15.60;55.40;;;;;;5091366;28;19916;-85
2023/04/28 06:10:20;;;;;;;;;;;15.60;55.50;;;;;;5091710;28;19916;-85
2023/04/28 06:12:46;;;;;;;;;;;15.60;55.60;;;;;;5092747;28;19914;-85
2023/04/28 06:15:11;;;;;;;;;;;15.60;55.80;;;;;;5092135;28;19915;-85
2023/04/28 06:17:37;;;;;;;;;;;15.60;55.70;;;;;;5109782;28;19914;-85
2023/04/28 06:20:03;;;;;;;;;;;15.70;55.80;;;;;;5090532;28;19994;-85
2023/04/28 06:22:29;;;;;;;;;;;15.60;56.30;;;;;;5087047;28;19915;-86
2023/04/28 06:24:55;;;;;;;;;;;15.70;55.80;;;;;;5087641;28;19908;-85
2023/04/28 06:27:20;;;;;;;;;;;15.70;55.90;;;;;;5086100;28;19912;-85
2023/04/28 06:29:46;;;;;;;;;;;15.80;56.10;;;;;;5120211;27;20144;-85
2023/04/28 06:32:12;;;;;;;;;;;15.80;56.10;;;;;;5087346;28;19908;-85
2023/04/28 06:34:37;;;;;;;;;;;15.80;56.10;;;;;;5089365;28;19908;-85
2023/04/28 06:37:03;;;;;;;;;;;15.90;56.10;;;;;;5087125;28;19980;-85
2023/04/28 06:39:29;;;;;;;;;;;15.90;56.10;;;;;;5123116;27;19908;-85
2023/04/28 06:41:55;;;;;;;;;;;16.00;56.20;;;;;;5090777;28;19912;-86
2023/04/28 06:44:20;;;;;;;;;;;16.00;56.20;;;;;;5092114;28;19947;-86
2023/04/28 06:46:46;;;;;;;;;;;16.10;56.00;;;;;;5090070;28;20381;-86
2023/04/28 06:49:11;;;;;;;;;;;16.20;55.90;;;;;;5125348;27;20157;-86
2023/04/28 06:51:37;;;;;;;;;;;16.40;55.70;;;;;;5091614;28;19911;-85
2023/04/28 06:54:02;;;;;;;;;;;16.50;55.40;;;;;;5109971;28;19915;-85
2023/04/28 06:56:28;;;;;;;;;;;16.70;55.10;;;;;;5109886;28;19908;-85
2023/04/28 06:58:54;;;;;;;;;;;16.80;54.90;;;;;;5091695;28;19908;-85
2023/04/28 07:01:20;;;;;;;;;;;16.80;54.50;;;;;;5108843;28;20011;-85
2023/04/28 07:03:45;;;;;;;;;;;16.90;54.50;;;;;;5090970;28;20014;-85
2023/04/28 07:06:11;;;;;;;;;;;16.90;54.20;;;;;;5089781;28;19908;-85
2023/04/28 07:08:37;;;;;;;;;;;16.80;54.40;;;;;;5088857;28;19912;-85
2023/04/28 07:11:05;;;;;;;;;;;16.80;54.40;;;;;;5089619;28;20096;-85
2023/04/28 07:13:31;;;;;;;;;;;16.70;54.60;;;;;;5124977;27;19908;-85
2023/04/28 07:15:57;;;;;;;;;;;16.60;54.80;;;;;;5123709;27;19943;-86
2023/04/28 07:18:23;;;;;;;;;;;16.60;54.90;;;;;;5090837;28;20007;-85
2023/04/28 07:20:48;;;;;;;;;;;16.60;55.30;;;;;;5089325;28;19924;-85
2023/04/28 07:23:14;;;;;;;;;;;16.60;55.00;;;;;;5087416;28;19904;-85
2023/04/28 07:25:40;;;;;;;;;;;16.70;55.10;;;;;;5105395;28;20151;-86
2023/04/28 07:28:06;;;;;;;;;;;16.70;55.10;;;;;;5118366;27;20326;-86
2023/04/28 07:30:31;;;;;;;;;;;16.80;55.10;;;;;;5085837;28;20193;-85
2023/04/28 07:32:57;;;;;;;;;;;16.80;55.20;;;;;;5083995;28;20372;-86
2023/04/28 07:35:23;;;;;;;;;;;16.80;55.20;;;;;;5094732;28;19927;-86
2023/04/28 07:37:49;;;;;;;;;;;16.80;55.50;;;;;;5088344;28;20168;-85
2023/04/28 07:40:15;;;;;;;;;;;16.80;55.60;;;;;;5106407;28;19908;-85
2023/04/28 07:42:40;;;;;;;;;;;16.90;56.20;;;;;;5123839;27;20021;-85
2023/04/28 07:45:07;;;;;;;;;;;17.20;55.80;;;;;;5124554;27;19931;-86
2023/04/28 07:47:32;;;;;;;;;;;18.30;54.90;;;;;;5111571;28;19973;-86
2023/04/28 07:49:59;;;;;;;;;;;18.60;53.60;;;;;;5091423;28;20284;-86
2023/04/28 07:52:25;;;;;;;;;;;18.40;53.50;;;;;;5106938;28;20401;-86
2023/04/28 07:54:51;;;;;;;;;;;18.20;53.70;;;;;;5105815;28;19919;-85
2023/04/28 07:57:16;;;;;;;;;;;18.00;54.10;;;;;;5085644;28;19954;-85
2023/04/28 08:12:39;;;;;;;;;;;17.70;55.20;;;;;;5117122;28;20315;-86
2023/04/28 08:15:09;;;;;;;;;;;17.60;55.20;;;;;;5087294;28;20086;-85
2023/04/28 08:17:34;;;;;;;;;;;17.50;55.30;;;;;;5105975;28;20272;-85
2023/04/28 08:20:04;;;;;;;;;;;17.50;55.50;;;;;;5108765;28;20006;-85
2023/04/28 08:22:30;;;;;;;;;;;17.50;55.70;;;;;;5107034;28;20430;-85
2023/04/28 08:25:02;;;;;;;;;;;17.50;55.80;;;;;;5089634;28;20019;-86
2023/04/28 08:27:33;;;;;;;;;;;17.70;55.80;;;;;;5122833;27;20002;-86
2023/04/28 08:30:04;;;;;;;;;;;17.90;55.60;;;;;;5087040;28;20060;-86
2023/04/28 08:32:33;;;;;;;;;;;17.80;55.60;;;;;;5086662;28;19911;-86
2023/04/28 08:35:02;;;;;;;;;;;17.80;55.80;;;;;;5090203;28;20156;-85
2023/04/28 08:37:30;;;;;;;;;;;17.70;56.00;;;;;;5089394;28;20219;-86
2023/04/28 08:40:08;;;;;;;;;;;17.60;56.20;;;;;;5090221;28;20047;-85
2023/04/28 08:42:50;;;;;;;;;;;17.60;56.30;;;;;;5090217;28;19992;-85
2023/04/28 08:45:18;;;;;;;;;;;17.60;56.40;;;;;;5108670;28;20284;-85
2023/04/28 08:47:48;;;;;;;;;;;17.80;56.40;;;;;;5089042;28;19929;-86
2023/04/28 08:50:17;;;;;;;;;;;17.80;56.30;;;;;;5109279;28;20435;-86
2023/04/28 08:52:43;;;;;;;;;;;17.80;56.20;;;;;;5109637;28;19907;-85
2023/04/28 08:55:18;;;;;;;;;;;17.90;56.40;;;;;;5090731;28;19938;-85
2023/04/28 08:58:04;;;;;;;;;;;17.80;56.40;;;;;;5090925;28;19939;-85
2023/04/28 09:00:37;;;;;;;;;;;17.80;56.50;;;;;;5105918;28;20291;-85
2023/04/28 09:03:07;;;;;;;;;;;17.70;56.60;;;;;;5093238;28;19961;-85
2023/04/28 09:05:41;;;;;;;;;;;17.70;56.80;;;;;;5112311;28;19908;-85
2023/04/28 09:08:11;;;;;;;;;;;17.70;56.90;;;;;;5091531;28;19919;-85
2023/04/28 09:10:39;;;;;;;;;;;17.70;56.90;;;;;;5089290;28;20254;-86
2023/04/28 09:13:05;;;;;;;;;;;17.60;57.10;;;;;;5088108;28;19926;-85
2023/04/28 09:15:40;;;;;;;;;;;17.60;57.30;;;;;;5085897;28;19916;-85
2023/04/28 09:18:18;;;;;;;;;;;17.70;57.30;;;;;;5104515;28;19972;-86
2023/04/28 09:20:44;;;;;;;;;;;17.80;57.40;;;;;;5084590;28;19919;-86
2023/04/28 09:23:18;;;;;;;;;;;18.30;56.80;;;;;;5085310;28;20119;-86
2023/04/28 09:26:17;;;;;;;;;;;18.30;56.40;;;;;;5088014;28;20281;-85
2023/04/28 09:28:42;;;;;;;;;;;18.60;56.20;;;;;;5076869;28;20176;-85
2023/04/28 09:31:39;;;;;;;;;;;18.70;55.70;;;;;;5086788;28;19986;-86
2023/04/28 09:34:06;;;;;;;;;;;18.60;55.70;;;;;;5089221;28;20204;-86
2023/04/28 09:36:32;;;;;;;;;;;18.70;55.80;;;;;;5089683;28;19915;-86
2023/04/28 09:39:01;;;;;;;;;;;18.70;55.70;;;;;;5126265;27;20196;-86
2023/04/28 09:41:40;;;;;;;;;;;18.60;55.70;;;;;;5107875;28;20049;-85
2023/04/28 09:44:13;;;;;;;;;;;18.60;55.80;;;;;;5091154;28;20035;-86
2023/04/28 09:46:43;;;;;;;;;;;18.60;56.10;;;;;;5090086;28;19912;-86
2023/04/28 09:49:12;;;;;;;;;;;18.50;56.10;;;;;;5089782;28;19961;-86
2023/04/28 09:51:59;;;;;;;;;;;18.40;56.20;;;;;;5088624;28;20164;-86
2023/04/28 09:54:27;;;;;;;;;;;18.40;56.40;;;;;;5086899;28;20178;-86
2023/04/28 09:56:55;;;;;;;;;;;18.20;56.70;;;;;;5107423;28;20248;-86
2023/04/28 09:59:25;;;;;;;;;;;18.20;56.90;;;;;;5089350;28;19918;-86
2023/04/28 10:02:25;;;;;;;;;;;18.10;57.10;;;;;;5090456;28;19937;-86
2023/04/28 10:04:54;;;;;;;;;;;18.10;57.20;;;;;;5065819;28;20053;-86
2023/04/28 10:07:20;;;;;;;;;;;18.10;57.40;;;;;;5086280;28;20231;-85
2023/04/28 10:09:49;;;;;;;;;;;18.10;57.30;;;;;;5087880;28;20002;-85
2023/04/28 10:12:21;;;;;;;;;;;18.10;57.40;;;;;;5106173;28;20385;-85
2023/04/28 10:14:53;;;;;;;;;;;18.10;57.40;;;;;;5089532;28;19908;-85
2023/04/28 10:20:10;;;;;;;;;;;18.30;57.40;;;;;;5105198;28;20268;-86
2023/04/28 10:22:48;;;;;;;;;;;18.60;57.10;;;;;;5085365;28;20457;-86
2023/04/28 10:28:22;;;;;;;;;;;18.70;56.80;;;;;;5105852;28;19972;-86
2023/04/28 10:31:06;;;;;;;;;;;18.70;57.00;;;;;;5088930;28;20045;-86
2023/04/28 10:33:32;;;;;;;;;;;18.60;57.10;;;;;;5087744;28;19931;-86
2023/04/28 10:36:03;;;;;;;;;;;18.60;57.30;;;;;;5103070;28;20424;-86
2023/04/28 10:38:29;;;;;;;;;;;18.50;57.50;;;;;;5106403;28;20242;-86
2023/04/28 10:41:01;;;;;;;;;;;18.50;57.70;;;;;;5096754;28;20296;-85
2023/04/28 10:43:27;;;;;;;;;;;18.60;57.80;;;;;;5107201;28;19914;-86
2023/04/28 10:46:04;;;;;;;;;;;18.60;57.70;;;;;;5087731;28;19908;-85
2023/04/28 10:48:48;;;;;;;;;;;18.60;57.90;;;;;;5088498;28;19937;-86
2023/04/28 10:51:14;;;;;;;;;;;18.50;58.00;;;;;;5091040;28;20152;-86
2023/04/28 10:53:50;;;;;;;;;;;18.40;58.30;;;;;;5089426;28;20147;-86
2023/04/28 10:56:24;;;;;;;;;;;18.40;58.40;;;;;;5087819;28;19940;-86
2023/04/28 10:58:49;;;;;;;;;;;18.40;58.50;;;;;;5088263;28;19922;-86
2023/04/28 11:01:23;;;;;;;;;;;18.50;58.90;;;;;;5105195;28;19924;-86
2023/04/28 11:03:52;;;;;;;;;;;18.40;59.20;;;;;;5105402;28;20273;-85
2023/04/28 11:06:34;;;;;;;;;;;18.40;59.70;;;;;;5088385;28;20002;-85
2023/04/28 11:09:18;;;;;;;;;;;18.40;60.30;;;;;;5088583;28;19962;-86
2023/04/28 11:11:53;;;;;;;;;;;18.30;60.60;;;;;;5088108;28;19907;-85
2023/04/28 11:14:22;;;;;;;;;;;18.40;61.10;;;;;;5087433;28;20002;-85
2023/04/28 11:17:07;;;;;;;;;;;18.30;61.40;;;;;;5082437;28;20211;-85
2023/04/28 11:19:40;;;;;;;;;;;18.30;61.70;;;;;;5086814;28;19922;-86
2023/04/28 11:22:17;;;;;;;;;;;18.30;62.30;;;;;;5102857;28;19908;-86
2023/04/28 11:24:58;;;;;;;;;;;18.30;62.70;;;;;;5084472;28;20263;-86
2023/04/28 11:27:29;;;;;;;;;;;18.20;63.10;;;;;;5079590;28;20158;-85
2023/04/28 11:30:18;;;;;;;;;;;18.20;63.40;;;;;;5081608;28;20072;-85
2023/04/28 11:32:51;;;;;;;;;;;18.20;63.60;;;;;;5083182;28;19950;-85
2023/04/28 11:35:16;;;;;;;;;;;18.20;63.90;;;;;;5082200;28;20007;-85
2023/04/28 11:38:00;;;;;;;;;;;18.20;63.90;;;;;;5082599;28;19919;-85
2023/04/28 11:40:26;;;;;;;;;;;18.20;63.90;;;;;;5081921;28;19907;-85
2023/04/28 11:42:55;;;;;;;;;;;18.30;64.10;;;;;;5084321;28;19908;-86
2023/04/28 11:45:35;;;;;;;;;;;18.30;64.10;;;;;;5081828;28;20418;-86
2023/04/28 11:48:28;;;;;;;;;;;18.30;64.10;;;;;;5082972;28;20064;-85
2023/04/28 11:51:00;;;;;;;;;;;18.30;63.90;;;;;;5120410;27;19917;-85
2023/04/28 11:53:45;;;;;;;;;;;18.30;63.90;;;;;;5085554;28;20174;-85
2023/04/28 11:56:13;;;;;;;;;;;18.30;64.00;;;;;;5088509;28;20293;-85
2023/04/28 11:58:39;;;;;;;;;;;18.30;64.30;;;;;;5089010;28;19997;-85
2023/04/28 12:01:09;;;;;;;;;;;18.30;64.20;;;;;;5087946;28;20016;-85
2023/04/28 12:03:59;;;;;;;;;;;18.30;64.30;;;;;;5106875;28;19908;-85
2023/04/28 12:06:25;;;;;;;;;;;18.30;64.70;;;;;;5105528;28;19908;-85
2023/04/28 12:08:51;;;;;;;;;;;18.30;65.10;;;;;;5085675;28;20236;-85
2023/04/28 12:11:17;;;;;;;;;;;18.30;65.20;;;;;;5106303;28;19945;-85
2023/04/28 12:14:09;;;;;;;;;;;18.30;65.20;;;;;;5087637;28;19908;-85
2023/04/28 12:16:42;;;;;;;;;;;18.30;65.20;;;;;;5104864;28;19951;-85
2023/04/28 12:19:09;;;;;;;;;;;18.40;65.30;;;;;;5086666;28;20004;-85
2023/04/28 12:24:39;;;;;;;;;;;18.50;65.00;;;;;;5059365;28;20211;-85
2023/04/28 12:27:20;;;;;;;;;;;18.60;64.40;;;;;;5089396;28;20075;-85
2023/04/28 12:29:46;;;;;;;;;;;18.60;64.40;;;;;;5107815;28;19908;-85
2023/04/28 12:32:12;;;;;;;;;;;18.60;64.30;;;;;;5089987;28;20256;-85
2023/04/28 12:34:49;;;;;;;;;;;18.60;64.30;;;;;;5090065;28;19908;-86
2023/04/28 12:37:15;;;;;;;;;;;18.60;64.50;;;;;;5092498;28;20158;-86
2023/04/28 12:39:41;;;;;;;;;;;18.60;64.60;;;;;;5092266;28;20204;-86
2023/04/28 12:42:07;;;;;;;;;;;18.60;64.80;;;;;;5093216;28;20311;-85
2023/04/28 12:44:36;;;;;;;;;;;18.60;65.20;;;;;;5090455;28;20090;-85
2023/04/28 12:47:18;;;;;;;;;;;18.60;65.30;;;;;;5091462;28;19908;-85
2023/04/28 12:49:43;;;;;;;;;;;18.60;65.30;;;;;;5088168;28;19938;-85
2023/04/28 12:52:12;;;;;;;;;;;18.60;65.50;;;;;;5108280;28;19908;-85
2023/04/28 12:54:45;;;;;;;;;;;18.60;65.70;;;;;;5125283;27;20182;-85
2023/04/28 12:57:14;;;;;;;;;;;18.70;65.60;;;;;;5106722;28;19926;-85
2023/04/28 12:59:51;;;;;;;;;;;18.70;65.10;;;;;;5124079;27;20324;-85
2023/04/28 13:02:17;;;;;;;;;;;18.70;65.20;;;;;;5088228;28;19938;-87
2023/04/28 13:05:04;;;;;;;;;;;18.80;65.30;;;;;;5093575;28;19915;-85
2023/04/28 13:07:34;;;;;;;;;;;18.80;64.80;;;;;;5088406;28;19995;-85
2023/04/28 13:10:00;;;;;;;;;;;18.90;64.50;;;;;;5088856;28;19939;-85
2023/04/28 13:12:26;;;;;;;;;;;19.00;64.60;;;;;;5081441;28;20380;-85
2023/04/28 13:14:51;;;;;;;;;;;19.10;64.40;;;;;;5105579;28;19998;-85
2023/04/28 13:17:20;;;;;;;;;;;19.10;64.20;;;;;;5085988;28;20278;-85
2023/04/28 13:19:46;;;;;;;;;;;19.10;63.90;;;;;;5087360;28;20178;-85
2023/04/28 13:22:16;;;;;;;;;;;19.10;63.80;;;;;;5120406;27;19918;-85
2023/04/28 13:24:41;;;;;;;;;;;19.10;63.90;;;;;;5086600;28;20230;-85
2023/04/28 13:27:10;;;;;;;;;;;19.10;64.10;;;;;;5105320;28;19908;-85
2023/04/28 13:29:36;;;;;;;;;;;19.10;64.30;;;;;;5091040;28;19984;-85
2023/04/28 13:32:01;;;;;;;;;;;19.10;64.00;;;;;;5091441;28;19914;-85
2023/04/28 13:34:36;;;;;;;;;;;19.20;63.90;;;;;;5106421;28;19916;-85
2023/04/28 13:37:02;;;;;;;;;;;19.20;63.50;;;;;;5105574;28;19922;-85
2023/04/28 13:39:28;;;;;;;;;;;19.30;63.50;;;;;;5086520;28;19908;-85
2023/04/28 13:41:53;;;;;;;;;;;19.30;63.40;;;;;;5092222;28;19907;-85
2023/04/28 13:44:22;;;;;;;;;;;19.20;63.40;;;;;;5090472;28;20231;-84
2023/04/28 13:46:51;;;;;;;;;;;19.30;63.70;;;;;;5072978;28;20082;-85
2023/04/28 13:49:17;;;;;;;;;;;19.30;64.10;;;;;;5067173;28;20379;-85
2023/04/28 13:51:45;;;;;;;;;;;19.30;64.00;;;;;;5066969;28;19908;-85
2023/04/28 13:54:11;;;;;;;;;;;19.30;63.80;;;;;;5086390;28;20076;-85
2023/04/28 13:56:37;;;;;;;;;;;19.40;63.70;;;;;;5067024;28;19909;-85
2023/04/28 13:59:14;;;;;;;;;;;19.40;63.70;;;;;;5064128;28;20154;-85
2023/04/28 14:01:41;;;;;;;;;;;19.40;63.70;;;;;;5067694;28;19908;-85
2023/04/28 14:04:09;;;;;;;;;;;19.50;63.60;;;;;;5067046;28;20196;-85
2023/04/28 14:06:36;;;;;;;;;;;19.50;63.30;;;;;;5082924;28;20443;-85
2023/04/28 14:09:05;;;;;;;;;;;19.50;63.30;;;;;;5101791;28;19966;-85
2023/04/28 14:11:31;;;;;;;;;;;19.40;63.60;;;;;;5087252;28;19908;-86
2023/04/28 14:13:56;;;;;;;;;;;19.40;63.80;;;;;;5069072;28;19919;-85
2023/04/28 14:16:22;;;;;;;;;;;19.40;63.90;;;;;;5088190;28;19918;-85
2023/04/28 14:18:51;;;;;;;;;;;19.40;64.20;;;;;;5101061;28;20107;-85
2023/04/28 14:21:39;;;;;;;;;;;19.40;64.40;;;;;;5070463;28;19916;-85
2023/04/28 14:24:09;;;;;;;;;;;19.40;64.50;;;;;;5073524;28;19918;-85
2023/04/28 14:26:48;;;;;;;;;;;19.40;64.30;;;;;;5126088;27;20163;-85
2023/04/28 14:29:14;;;;;;;;;;;19.40;64.30;;;;;;5089017;28;19908;-85
2023/04/28 14:31:40;;;;;;;;;;;19.50;64.60;;;;;;5106310;28;20278;-85
2023/04/28 14:34:24;;;;;;;;;;;19.40;64.40;;;;;;5089693;28;19974;-85
2023/04/28 14:36:53;;;;;;;;;;;19.40;64.50;;;;;;5107050;28;19923;-85
2023/04/28 14:39:21;;;;;;;;;;;19.50;64.60;;;;;;5121779;27;19939;-85
2023/04/28 14:41:50;;;;;;;;;;;19.50;64.60;;;;;;5089038;28;19908;-85
2023/04/28 14:44:17;;;;;;;;;;;19.50;64.40;;;;;;5122563;27;19908;-86
2023/04/28 14:47:02;;;;;;;;;;;19.50;64.30;;;;;;5121554;27;20414;-85